sensor_id;sensor_type;location;lat;lon;timestamp;P1;durP1;ratioP1;P2;durP2;ratioP2
2656;SDS011;1338;48.176;11.792;2022-10-18T00:00:58;7.53;;;6.87;;
2656;SDS011;1338;48.176;11.792;2022-10-18T00:03:26;7.30;;;6.60;;
2656;SDS011;1338;48.176;11.792;2022-10-18T00:05:56;11.17;;;6.40;;
2656;SDS011;1338;48.176;11.792;2022-10-18T00:08:25;6.63;;;5.93;;
2656;SDS011;1338;48.176;11.792;2022-10-18T00:10:53;7.33;;;6.63;;
2656;SDS011;1338;48.176;11.792;2022-10-18T00:13:21;7.37;;;6.70;;
2656;SDS011;1338;48.176;11.792;2022-10-18T00:15:49;10.53;;;6.57;;
2656;SDS011;1338;48.176;11.792;2022-10-18T00:18:19;6.17;;;5.67;;
2656;SDS011;1338;48.176;11.792;2022-10-18T00:20:56;8.90;;;6.13;;
2656;SDS011;1338;48.176;11.792;2022-10-18T00:23:25;6.60;;;5.93;;
2656;SDS011;1338;48.176;11.792;2022-10-18T00:25:58;10.37;;;6.80;;
2656;SDS011;1338;48.176;11.792;2022-10-18T00:28:27;8.60;;;6.73;;
2656;SDS011;1338;48.176;11.792;2022-10-18T00:30:56;7.10;;;6.40;;
2656;SDS011;1338;48.176;11.792;2022-10-18T00:33:24;8.53;;;5.97;;
2656;SDS011;1338;48.176;11.792;2022-10-18T00:35:53;7.77;;;6.80;;
2656;SDS011;1338;48.176;11.792;2022-10-18T00:38:26;9.27;;;6.53;;
2656;SDS011;1338;48.176;11.792;2022-10-18T00:40:54;6.93;;;6.30;;
2656;SDS011;1338;48.176;11.792;2022-10-18T00:43:22;7.17;;;6.43;;
2656;SDS011;1338;48.176;11.792;2022-10-18T00:45:50;7.00;;;6.30;;
2656;SDS011;1338;48.176;11.792;2022-10-18T00:48:18;10.10;;;7.13;;
2656;SDS011;1338;48.176;11.792;2022-10-18T00:50:47;7.70;;;7.00;;
2656;SDS011;1338;48.176;11.792;2022-10-18T00:53:19;9.73;;;7.10;;
2656;SDS011;1338;48.176;11.792;2022-10-18T00:55:49;7.90;;;7.10;;
2656;SDS011;1338;48.176;11.792;2022-10-18T00:58:17;7.33;;;6.60;;
2656;SDS011;1338;48.176;11.792;2022-10-18T01:00:46;8.07;;;7.30;;
2656;SDS011;1338;48.176;11.792;2022-10-18T01:03:14;10.77;;;6.73;;
2656;SDS011;1338;48.176;11.792;2022-10-18T01:05:43;7.30;;;6.60;;
2656;SDS011;1338;48.176;11.792;2022-10-18T01:11:10;6.63;;;6.10;;
2656;SDS011;1338;48.176;11.792;2022-10-18T01:13:55;6.37;;;5.77;;
2656;SDS011;1338;48.176;11.792;2022-10-18T01:16:35;10.10;;;6.50;;
2656;SDS011;1338;48.176;11.792;2022-10-18T01:19:12;6.53;;;6.03;;
2656;SDS011;1338;48.176;11.792;2022-10-18T01:21:56;6.80;;;6.00;;
2656;SDS011;1338;48.176;11.792;2022-10-18T01:24:44;7.47;;;6.50;;
2656;SDS011;1338;48.176;11.792;2022-10-18T01:27:28;6.03;;;5.53;;
2656;SDS011;1338;48.176;11.792;2022-10-18T01:33:05;6.40;;;5.20;;
2656;SDS011;1338;48.176;11.792;2022-10-18T01:35:43;6.40;;;5.37;;
2656;SDS011;1338;48.176;11.792;2022-10-18T01:38:16;6.40;;;5.80;;
2656;SDS011;1338;48.176;11.792;2022-10-18T01:40:47;6.03;;;5.43;;
2656;SDS011;1338;48.176;11.792;2022-10-18T01:43:17;6.30;;;5.70;;
2656;SDS011;1338;48.176;11.792;2022-10-18T01:45:49;7.00;;;5.77;;
2656;SDS011;1338;48.176;11.792;2022-10-18T01:48:19;11.90;;;5.97;;
2656;SDS011;1338;48.176;11.792;2022-10-18T01:50:48;7.53;;;6.20;;
2656;SDS011;1338;48.176;11.792;2022-10-18T01:53:23;5.77;;;5.17;;
2656;SDS011;1338;48.176;11.792;2022-10-18T01:55:57;7.43;;;5.80;;
2656;SDS011;1338;48.176;11.792;2022-10-18T01:58:47;7.30;;;5.33;;
2656;SDS011;1338;48.176;11.792;2022-10-18T02:01:29;6.03;;;5.43;;
2656;SDS011;1338;48.176;11.792;2022-10-18T02:04:06;11.37;;;5.70;;
2656;SDS011;1338;48.176;11.792;2022-10-18T02:06:45;5.97;;;5.43;;
2656;SDS011;1338;48.176;11.792;2022-10-18T02:09:18;6.57;;;5.33;;
2656;SDS011;1338;48.176;11.792;2022-10-18T02:11:52;8.43;;;5.70;;
2656;SDS011;1338;48.176;11.792;2022-10-18T02:14:22;6.23;;;4.87;;
2656;SDS011;1338;48.176;11.792;2022-10-18T02:16:54;6.13;;;5.53;;
2656;SDS011;1338;48.176;11.792;2022-10-18T02:19:26;5.93;;;5.43;;
2656;SDS011;1338;48.176;11.792;2022-10-18T02:21:57;5.90;;;5.00;;
2656;SDS011;1338;48.176;11.792;2022-10-18T02:24:29;6.67;;;6.00;;
2656;SDS011;1338;48.176;11.792;2022-10-18T02:27:01;6.07;;;5.47;;
2656;SDS011;1338;48.176;11.792;2022-10-18T02:29:29;6.07;;;5.37;;
2656;SDS011;1338;48.176;11.792;2022-10-18T02:32:01;6.10;;;5.50;;
2656;SDS011;1338;48.176;11.792;2022-10-18T02:34:34;5.83;;;5.23;;
2656;SDS011;1338;48.176;11.792;2022-10-18T02:37:05;5.57;;;5.07;;
2656;SDS011;1338;48.176;11.792;2022-10-18T02:39:35;5.37;;;4.70;;
2656;SDS011;1338;48.176;11.792;2022-10-18T02:42:08;5.47;;;5.00;;
2656;SDS011;1338;48.176;11.792;2022-10-18T02:44:37;6.07;;;5.47;;
2656;SDS011;1338;48.176;11.792;2022-10-18T02:47:08;7.83;;;6.07;;
2656;SDS011;1338;48.176;11.792;2022-10-18T02:49:37;6.30;;;5.80;;
2656;SDS011;1338;48.176;11.792;2022-10-18T02:52:05;7.00;;;5.77;;
2656;SDS011;1338;48.176;11.792;2022-10-18T02:54:33;6.87;;;5.63;;
2656;SDS011;1338;48.176;11.792;2022-10-18T02:57:01;6.50;;;5.80;;
2656;SDS011;1338;48.176;11.792;2022-10-18T02:59:29;7.70;;;5.30;;
2656;SDS011;1338;48.176;11.792;2022-10-18T03:01:57;8.47;;;5.40;;
2656;SDS011;1338;48.176;11.792;2022-10-18T03:04:26;5.63;;;5.20;;
2656;SDS011;1338;48.176;11.792;2022-10-18T03:06:54;9.37;;;6.20;;
2656;SDS011;1338;48.176;11.792;2022-10-18T03:09:22;9.30;;;5.70;;
2656;SDS011;1338;48.176;11.792;2022-10-18T03:11:51;6.20;;;5.60;;
2656;SDS011;1338;48.176;11.792;2022-10-18T03:14:19;7.20;;;5.23;;
2656;SDS011;1338;48.176;11.792;2022-10-18T03:16:47;5.53;;;5.03;;
2656;SDS011;1338;48.176;11.792;2022-10-18T03:19:15;6.33;;;5.20;;
2656;SDS011;1338;48.176;11.792;2022-10-18T03:21:45;6.50;;;5.63;;
2656;SDS011;1338;48.176;11.792;2022-10-18T03:24:13;5.47;;;5.00;;
2656;SDS011;1338;48.176;11.792;2022-10-18T03:26:41;9.20;;;5.57;;
2656;SDS011;1338;48.176;11.792;2022-10-18T03:29:09;5.73;;;5.03;;
2656;SDS011;1338;48.176;11.792;2022-10-18T03:31:38;9.43;;;6.00;;
2656;SDS011;1338;48.176;11.792;2022-10-18T03:34:06;6.20;;;5.43;;
2656;SDS011;1338;48.176;11.792;2022-10-18T03:36:34;6.43;;;5.83;;
2656;SDS011;1338;48.176;11.792;2022-10-18T03:39:05;6.57;;;5.13;;
2656;SDS011;1338;48.176;11.792;2022-10-18T03:41:33;6.20;;;5.10;;
2656;SDS011;1338;48.176;11.792;2022-10-18T03:44:01;6.57;;;4.70;;
2656;SDS011;1338;48.176;11.792;2022-10-18T03:46:29;6.23;;;5.30;;
2656;SDS011;1338;48.176;11.792;2022-10-18T03:48:57;5.50;;;5.00;;
2656;SDS011;1338;48.176;11.792;2022-10-18T03:51:25;5.57;;;5.07;;
2656;SDS011;1338;48.176;11.792;2022-10-18T03:53:53;5.47;;;4.93;;
2656;SDS011;1338;48.176;11.792;2022-10-18T03:56:23;5.87;;;5.17;;
2656;SDS011;1338;48.176;11.792;2022-10-18T03:58:51;7.50;;;5.30;;
2656;SDS011;1338;48.176;11.792;2022-10-18T04:01:19;5.63;;;5.07;;
2656;SDS011;1338;48.176;11.792;2022-10-18T04:03:47;5.40;;;4.83;;
2656;SDS011;1338;48.176;11.792;2022-10-18T04:06:15;8.67;;;5.40;;
2656;SDS011;1338;48.176;11.792;2022-10-18T04:08:43;5.13;;;4.50;;
2656;SDS011;1338;48.176;11.792;2022-10-18T04:11:11;5.20;;;4.70;;
2656;SDS011;1338;48.176;11.792;2022-10-18T04:13:41;5.83;;;5.33;;
2656;SDS011;1338;48.176;11.792;2022-10-18T04:16:09;5.07;;;4.67;;
2656;SDS011;1338;48.176;11.792;2022-10-18T04:18:37;7.50;;;5.57;;
2656;SDS011;1338;48.176;11.792;2022-10-18T04:21:05;5.90;;;5.40;;
2656;SDS011;1338;48.176;11.792;2022-10-18T04:23:34;5.67;;;5.07;;
2656;SDS011;1338;48.176;11.792;2022-10-18T04:26:04;7.07;;;5.20;;
2656;SDS011;1338;48.176;11.792;2022-10-18T04:28:33;5.00;;;4.50;;
2656;SDS011;1338;48.176;11.792;2022-10-18T04:31:06;5.83;;;5.33;;
2656;SDS011;1338;48.176;11.792;2022-10-18T04:33:34;7.33;;;5.33;;
2656;SDS011;1338;48.176;11.792;2022-10-18T04:36:03;8.33;;;4.83;;
2656;SDS011;1338;48.176;11.792;2022-10-18T04:38:31;6.00;;;4.93;;
2656;SDS011;1338;48.176;11.792;2022-10-18T04:40:59;7.47;;;5.80;;
2656;SDS011;1338;48.176;11.792;2022-10-18T04:43:27;6.20;;;5.60;;
2656;SDS011;1338;48.176;11.792;2022-10-18T04:45:55;7.70;;;4.97;;
2656;SDS011;1338;48.176;11.792;2022-10-18T04:48:25;5.27;;;4.77;;
2656;SDS011;1338;48.176;11.792;2022-10-18T04:50:53;6.40;;;5.07;;
2656;SDS011;1338;48.176;11.792;2022-10-18T04:53:21;5.47;;;4.87;;
2656;SDS011;1338;48.176;11.792;2022-10-18T04:55:49;4.93;;;4.43;;
2656;SDS011;1338;48.176;11.792;2022-10-18T04:58:17;4.67;;;4.23;;
2656;SDS011;1338;48.176;11.792;2022-10-18T05:00:46;6.30;;;5.10;;
2656;SDS011;1338;48.176;11.792;2022-10-18T05:03:14;6.70;;;4.90;;
2656;SDS011;1338;48.176;11.792;2022-10-18T05:05:44;8.40;;;4.93;;
2656;SDS011;1338;48.176;11.792;2022-10-18T05:08:29;5.73;;;5.00;;
2656;SDS011;1338;48.176;11.792;2022-10-18T05:10:58;6.37;;;5.63;;
2656;SDS011;1338;48.176;11.792;2022-10-18T05:13:26;6.07;;;5.43;;
2656;SDS011;1338;48.176;11.792;2022-10-18T05:15:54;6.13;;;5.67;;
2656;SDS011;1338;48.176;11.792;2022-10-18T05:18:24;7.27;;;5.27;;
2656;SDS011;1338;48.176;11.792;2022-10-18T05:20:54;5.23;;;4.73;;
2656;SDS011;1338;48.176;11.792;2022-10-18T05:23:22;5.10;;;4.70;;
2656;SDS011;1338;48.176;11.792;2022-10-18T05:25:51;5.00;;;4.50;;
2656;SDS011;1338;48.176;11.792;2022-10-18T05:28:19;5.37;;;4.83;;
2656;SDS011;1338;48.176;11.792;2022-10-18T05:31:07;5.00;;;4.60;;
2656;SDS011;1338;48.176;11.792;2022-10-18T05:33:37;5.40;;;4.90;;
2656;SDS011;1338;48.176;11.792;2022-10-18T05:36:06;9.23;;;5.30;;
2656;SDS011;1338;48.176;11.792;2022-10-18T05:38:36;7.60;;;4.50;;
2656;SDS011;1338;48.176;11.792;2022-10-18T05:41:07;6.90;;;4.83;;
2656;SDS011;1338;48.176;11.792;2022-10-18T05:43:36;12.57;;;5.13;;
2656;SDS011;1338;48.176;11.792;2022-10-18T05:46:04;5.70;;;5.20;;
2656;SDS011;1338;48.176;11.792;2022-10-18T05:48:40;6.63;;;4.40;;
2656;SDS011;1338;48.176;11.792;2022-10-18T05:51:10;7.70;;;4.90;;
2656;SDS011;1338;48.176;11.792;2022-10-18T05:53:38;7.27;;;5.00;;
2656;SDS011;1338;48.176;11.792;2022-10-18T05:56:06;5.00;;;4.37;;
2656;SDS011;1338;48.176;11.792;2022-10-18T05:58:37;5.87;;;4.40;;
2656;SDS011;1338;48.176;11.792;2022-10-18T06:01:05;5.67;;;4.20;;
2656;SDS011;1338;48.176;11.792;2022-10-18T06:03:34;5.57;;;5.07;;
2656;SDS011;1338;48.176;11.792;2022-10-18T06:06:04;5.33;;;4.93;;
2656;SDS011;1338;48.176;11.792;2022-10-18T06:08:35;5.83;;;4.70;;
2656;SDS011;1338;48.176;11.792;2022-10-18T06:11:07;5.40;;;4.40;;
2656;SDS011;1338;48.176;11.792;2022-10-18T06:13:38;7.53;;;4.70;;
2656;SDS011;1338;48.176;11.792;2022-10-18T06:16:07;6.97;;;4.97;;
2656;SDS011;1338;48.176;11.792;2022-10-18T06:18:36;4.90;;;4.30;;
2656;SDS011;1338;48.176;11.792;2022-10-18T06:21:04;5.13;;;4.30;;
2656;SDS011;1338;48.176;11.792;2022-10-18T06:23:35;5.90;;;4.73;;
2656;SDS011;1338;48.176;11.792;2022-10-18T06:26:04;5.73;;;4.70;;
2656;SDS011;1338;48.176;11.792;2022-10-18T06:28:34;5.53;;;4.67;;
2656;SDS011;1338;48.176;11.792;2022-10-18T06:31:03;5.33;;;4.80;;
2656;SDS011;1338;48.176;11.792;2022-10-18T06:33:32;5.47;;;4.97;;
2656;SDS011;1338;48.176;11.792;2022-10-18T06:36:02;6.13;;;4.73;;
2656;SDS011;1338;48.176;11.792;2022-10-18T06:38:32;6.43;;;4.40;;
2656;SDS011;1338;48.176;11.792;2022-10-18T06:41:02;6.07;;;4.87;;
2656;SDS011;1338;48.176;11.792;2022-10-18T06:43:32;4.97;;;4.10;;
2656;SDS011;1338;48.176;11.792;2022-10-18T06:46:01;5.53;;;5.03;;
2656;SDS011;1338;48.176;11.792;2022-10-18T06:48:31;7.57;;;6.03;;
2656;SDS011;1338;48.176;11.792;2022-10-18T06:51:00;14.03;;;6.90;;
2656;SDS011;1338;48.176;11.792;2022-10-18T06:53:30;6.73;;;5.53;;
2656;SDS011;1338;48.176;11.792;2022-10-18T06:56:00;5.00;;;4.60;;
2656;SDS011;1338;48.176;11.792;2022-10-18T06:58:31;7.10;;;5.27;;
2656;SDS011;1338;48.176;11.792;2022-10-18T07:01:04;7.17;;;4.67;;
2656;SDS011;1338;48.176;11.792;2022-10-18T07:03:33;7.83;;;5.40;;
2656;SDS011;1338;48.176;11.792;2022-10-18T07:06:01;14.67;;;5.70;;
2656;SDS011;1338;48.176;11.792;2022-10-18T07:08:30;11.43;;;5.20;;
2656;SDS011;1338;48.176;11.792;2022-10-18T07:10:58;6.53;;;4.97;;
2656;SDS011;1338;48.176;11.792;2022-10-18T07:13:28;9.27;;;4.97;;
2656;SDS011;1338;48.176;11.792;2022-10-18T07:16:02;5.73;;;5.23;;
2656;SDS011;1338;48.176;11.792;2022-10-18T07:18:32;5.50;;;5.00;;
2656;SDS011;1338;48.176;11.792;2022-10-18T07:21:02;6.97;;;5.20;;
2656;SDS011;1338;48.176;11.792;2022-10-18T07:23:31;6.33;;;5.40;;
2656;SDS011;1338;48.176;11.792;2022-10-18T07:26:00;8.50;;;5.33;;
2656;SDS011;1338;48.176;11.792;2022-10-18T07:28:31;6.50;;;5.10;;
2656;SDS011;1338;48.176;11.792;2022-10-18T07:31:02;5.73;;;5.33;;
2656;SDS011;1338;48.176;11.792;2022-10-18T07:33:31;7.30;;;5.73;;
2656;SDS011;1338;48.176;11.792;2022-10-18T07:35:59;9.10;;;5.73;;
2656;SDS011;1338;48.176;11.792;2022-10-18T07:38:28;6.53;;;4.93;;
2656;SDS011;1338;48.176;11.792;2022-10-18T07:40:56;6.53;;;5.70;;
2656;SDS011;1338;48.176;11.792;2022-10-18T07:43:25;4.90;;;4.50;;
2656;SDS011;1338;48.176;11.792;2022-10-18T07:45:56;6.80;;;5.07;;
2656;SDS011;1338;48.176;11.792;2022-10-18T07:48:25;5.50;;;4.97;;
2656;SDS011;1338;48.176;11.792;2022-10-18T07:50:53;6.97;;;4.80;;
2656;SDS011;1338;48.176;11.792;2022-10-18T07:53:24;7.93;;;4.60;;
2656;SDS011;1338;48.176;11.792;2022-10-18T07:55:55;7.20;;;5.73;;
2656;SDS011;1338;48.176;11.792;2022-10-18T07:58:24;7.70;;;4.97;;
2656;SDS011;1338;48.176;11.792;2022-10-18T08:00:53;7.60;;;5.33;;
2656;SDS011;1338;48.176;11.792;2022-10-18T08:03:22;6.90;;;4.80;;
2656;SDS011;1338;48.176;11.792;2022-10-18T08:05:51;6.10;;;5.50;;
2656;SDS011;1338;48.176;11.792;2022-10-18T08:08:20;6.10;;;5.50;;
2656;SDS011;1338;48.176;11.792;2022-10-18T08:10:49;6.93;;;5.20;;
2656;SDS011;1338;48.176;11.792;2022-10-18T08:13:17;7.13;;;5.60;;
2656;SDS011;1338;48.176;11.792;2022-10-18T08:15:46;7.87;;;5.53;;
2656;SDS011;1338;48.176;11.792;2022-10-18T08:18:14;5.90;;;5.30;;
2656;SDS011;1338;48.176;11.792;2022-10-18T08:20:43;7.00;;;5.30;;
2656;SDS011;1338;48.176;11.792;2022-10-18T08:23:12;8.13;;;6.10;;
2656;SDS011;1338;48.176;11.792;2022-10-18T08:25:40;6.83;;;5.57;;
2656;SDS011;1338;48.176;11.792;2022-10-18T08:28:08;6.13;;;5.43;;
2656;SDS011;1338;48.176;11.792;2022-10-18T08:30:36;7.10;;;5.90;;
2656;SDS011;1338;48.176;11.792;2022-10-18T08:33:04;6.00;;;5.40;;
2656;SDS011;1338;48.176;11.792;2022-10-18T08:35:32;6.20;;;5.60;;
2656;SDS011;1338;48.176;11.792;2022-10-18T08:38:02;7.00;;;6.20;;
2656;SDS011;1338;48.176;11.792;2022-10-18T08:40:30;6.10;;;5.60;;
2656;SDS011;1338;48.176;11.792;2022-10-18T08:43:02;7.10;;;5.43;;
2656;SDS011;1338;48.176;11.792;2022-10-18T08:45:35;6.47;;;5.87;;
2656;SDS011;1338;48.176;11.792;2022-10-18T08:48:15;7.90;;;5.60;;
2656;SDS011;1338;48.176;11.792;2022-10-18T08:50:48;5.40;;;4.60;;
2656;SDS011;1338;48.176;11.792;2022-10-18T08:53:21;5.77;;;5.27;;
2656;SDS011;1338;48.176;11.792;2022-10-18T08:55:54;6.70;;;5.57;;
2656;SDS011;1338;48.176;11.792;2022-10-18T08:58:29;6.03;;;4.80;;
2656;SDS011;1338;48.176;11.792;2022-10-18T09:01:02;5.57;;;5.07;;
2656;SDS011;1338;48.176;11.792;2022-10-18T09:03:46;6.83;;;6.17;;
2656;SDS011;1338;48.176;11.792;2022-10-18T09:06:28;6.37;;;5.77;;
2656;SDS011;1338;48.176;11.792;2022-10-18T09:09:04;9.00;;;6.93;;
2656;SDS011;1338;48.176;11.792;2022-10-18T09:11:48;7.20;;;6.60;;
2656;SDS011;1338;48.176;11.792;2022-10-18T09:14:31;7.60;;;7.00;;
2656;SDS011;1338;48.176;11.792;2022-10-18T09:17:26;7.43;;;6.73;;
2656;SDS011;1338;48.176;11.792;2022-10-18T09:20:04;7.30;;;6.60;;
2656;SDS011;1338;48.176;11.792;2022-10-18T09:22:53;6.90;;;6.20;;
2656;SDS011;1338;48.176;11.792;2022-10-18T09:25:24;8.67;;;7.30;;
2656;SDS011;1338;48.176;11.792;2022-10-18T09:28:05;7.00;;;6.30;;
2656;SDS011;1338;48.176;11.792;2022-10-18T09:30:48;8.17;;;7.43;;
2656;SDS011;1338;48.176;11.792;2022-10-18T09:33:27;8.10;;;7.33;;
2656;SDS011;1338;48.176;11.792;2022-10-18T09:36:04;8.37;;;7.50;;
2656;SDS011;1338;48.176;11.792;2022-10-18T09:38:37;7.30;;;6.60;;
2656;SDS011;1338;48.176;11.792;2022-10-18T09:41:12;8.27;;;7.27;;
2656;SDS011;1338;48.176;11.792;2022-10-18T09:43:46;7.80;;;6.63;;
2656;SDS011;1338;48.176;11.792;2022-10-18T09:46:19;7.80;;;7.00;;
2656;SDS011;1338;48.176;11.792;2022-10-18T09:48:50;10.57;;;7.23;;
2656;SDS011;1338;48.176;11.792;2022-10-18T09:51:23;7.00;;;6.40;;
2656;SDS011;1338;48.176;11.792;2022-10-18T09:54:01;7.80;;;7.03;;
2656;SDS011;1338;48.176;11.792;2022-10-18T09:56:36;7.67;;;6.87;;
2656;SDS011;1338;48.176;11.792;2022-10-18T09:59:13;6.63;;;6.10;;
2656;SDS011;1338;48.176;11.792;2022-10-18T10:01:49;8.37;;;7.47;;
2656;SDS011;1338;48.176;11.792;2022-10-18T10:04:18;7.30;;;6.60;;
2656;SDS011;1338;48.176;11.792;2022-10-18T10:06:48;6.27;;;5.60;;
2656;SDS011;1338;48.176;11.792;2022-10-18T10:09:20;9.60;;;7.37;;
2656;SDS011;1338;48.176;11.792;2022-10-18T10:11:56;7.73;;;7.03;;
2656;SDS011;1338;48.176;11.792;2022-10-18T10:14:25;7.67;;;7.00;;
2656;SDS011;1338;48.176;11.792;2022-10-18T10:16:56;6.70;;;6.10;;
2656;SDS011;1338;48.176;11.792;2022-10-18T10:19:28;7.70;;;6.93;;
2656;SDS011;1338;48.176;11.792;2022-10-18T10:22:00;6.90;;;6.17;;
2656;SDS011;1338;48.176;11.792;2022-10-18T10:24:39;6.97;;;6.23;;
2656;SDS011;1338;48.176;11.792;2022-10-18T10:27:16;6.53;;;5.67;;
2656;SDS011;1338;48.176;11.792;2022-10-18T10:29:47;6.70;;;6.10;;
2656;SDS011;1338;48.176;11.792;2022-10-18T10:32:23;7.80;;;7.10;;
2656;SDS011;1338;48.176;11.792;2022-10-18T10:34:56;9.40;;;6.87;;
2656;SDS011;1338;48.176;11.792;2022-10-18T10:37:32;6.83;;;6.13;;
2656;SDS011;1338;48.176;11.792;2022-10-18T10:40:12;7.70;;;6.90;;
2656;SDS011;1338;48.176;11.792;2022-10-18T10:46:03;6.77;;;6.17;;
2656;SDS011;1338;48.176;11.792;2022-10-18T10:48:38;11.00;;;6.67;;
2656;SDS011;1338;48.176;11.792;2022-10-18T10:51:11;6.97;;;6.20;;
2656;SDS011;1338;48.176;11.792;2022-10-18T10:53:41;6.50;;;6.00;;
2656;SDS011;1338;48.176;11.792;2022-10-18T10:56:16;7.70;;;5.80;;
2656;SDS011;1338;48.176;11.792;2022-10-18T10:58:49;7.47;;;6.77;;
2656;SDS011;1338;48.176;11.792;2022-10-18T11:01:23;6.87;;;6.17;;
2656;SDS011;1338;48.176;11.792;2022-10-18T11:03:55;6.23;;;5.70;;
2656;SDS011;1338;48.176;11.792;2022-10-18T11:12:12;6.97;;;6.33;;
2656;SDS011;1338;48.176;11.792;2022-10-18T11:14:50;5.83;;;5.33;;
2656;SDS011;1338;48.176;11.792;2022-10-18T11:17:25;6.50;;;5.90;;
2656;SDS011;1338;48.176;11.792;2022-10-18T11:20:07;6.80;;;6.03;;
2656;SDS011;1338;48.176;11.792;2022-10-18T11:22:47;6.53;;;5.90;;
2656;SDS011;1338;48.176;11.792;2022-10-18T11:25:46;7.67;;;6.20;;
2656;SDS011;1338;48.176;11.792;2022-10-18T11:28:40;6.07;;;5.57;;
2656;SDS011;1338;48.176;11.792;2022-10-18T11:31:19;10.13;;;6.17;;
2656;SDS011;1338;48.176;11.792;2022-10-18T11:34:04;8.30;;;6.23;;
2656;SDS011;1338;48.176;11.792;2022-10-18T11:36:44;6.20;;;5.70;;
2656;SDS011;1338;48.176;11.792;2022-10-18T11:39:36;6.80;;;6.10;;
2656;SDS011;1338;48.176;11.792;2022-10-18T11:42:15;6.77;;;6.17;;
2656;SDS011;1338;48.176;11.792;2022-10-18T11:44:52;6.93;;;5.73;;
2656;SDS011;1338;48.176;11.792;2022-10-18T11:47:33;6.33;;;5.80;;
2656;SDS011;1338;48.176;11.792;2022-10-18T11:50:10;6.60;;;5.90;;
2656;SDS011;1338;48.176;11.792;2022-10-18T11:52:48;7.20;;;6.17;;
2656;SDS011;1338;48.176;11.792;2022-10-18T11:55:26;6.10;;;5.50;;
2656;SDS011;1338;48.176;11.792;2022-10-18T11:58:06;5.50;;;5.10;;
2656;SDS011;1338;48.176;11.792;2022-10-18T12:00:46;5.60;;;5.10;;
2656;SDS011;1338;48.176;11.792;2022-10-18T12:03:23;6.13;;;5.20;;
2656;SDS011;1338;48.176;11.792;2022-10-18T12:05:57;5.73;;;5.10;;
2656;SDS011;1338;48.176;11.792;2022-10-18T12:08:30;7.63;;;5.80;;
2656;SDS011;1338;48.176;11.792;2022-10-18T12:11:02;6.20;;;5.70;;
2656;SDS011;1338;48.176;11.792;2022-10-18T12:13:38;5.50;;;5.10;;
2656;SDS011;1338;48.176;11.792;2022-10-18T12:16:10;5.43;;;4.93;;
2656;SDS011;1338;48.176;11.792;2022-10-18T12:18:44;6.13;;;5.53;;
2656;SDS011;1338;48.176;11.792;2022-10-18T12:21:16;6.30;;;5.50;;
2656;SDS011;1338;48.176;11.792;2022-10-18T12:23:51;7.77;;;5.90;;
2656;SDS011;1338;48.176;11.792;2022-10-18T12:26:21;6.03;;;5.43;;
2656;SDS011;1338;48.176;11.792;2022-10-18T12:28:54;6.53;;;5.80;;
2656;SDS011;1338;48.176;11.792;2022-10-18T12:31:27;6.37;;;5.00;;
2656;SDS011;1338;48.176;11.792;2022-10-18T12:34:02;8.67;;;5.27;;
2656;SDS011;1338;48.176;11.792;2022-10-18T12:36:46;8.33;;;6.50;;
2656;SDS011;1338;48.176;11.792;2022-10-18T12:39:36;6.50;;;5.40;;
2656;SDS011;1338;48.176;11.792;2022-10-18T12:42:23;6.93;;;6.20;;
2656;SDS011;1338;48.176;11.792;2022-10-18T12:44:59;6.37;;;5.77;;
2656;SDS011;1338;48.176;11.792;2022-10-18T12:47:28;6.17;;;5.57;;
2656;SDS011;1338;48.176;11.792;2022-10-18T12:50:00;6.10;;;5.60;;
2656;SDS011;1338;48.176;11.792;2022-10-18T12:52:31;6.23;;;5.70;;
2656;SDS011;1338;48.176;11.792;2022-10-18T12:55:11;7.30;;;6.70;;
2656;SDS011;1338;48.176;11.792;2022-10-18T12:58:02;6.33;;;5.73;;
2656;SDS011;1338;48.176;11.792;2022-10-18T13:00:51;8.70;;;6.40;;
2656;SDS011;1338;48.176;11.792;2022-10-18T13:03:34;6.67;;;6.00;;
2656;SDS011;1338;48.176;11.792;2022-10-18T13:07:02;5.57;;;5.07;;
2656;SDS011;1338;48.176;11.792;2022-10-18T13:09:33;7.20;;;6.60;;
2656;SDS011;1338;48.176;11.792;2022-10-18T13:15:34;8.17;;;5.70;;
2656;SDS011;1338;48.176;11.792;2022-10-18T13:18:13;6.93;;;5.40;;
2656;SDS011;1338;48.176;11.792;2022-10-18T13:20:52;6.53;;;4.87;;
2656;SDS011;1338;48.176;11.792;2022-10-18T13:23:32;6.13;;;5.53;;
2656;SDS011;1338;48.176;11.792;2022-10-18T13:26:11;7.33;;;5.20;;
2656;SDS011;1338;48.176;11.792;2022-10-18T13:28:47;8.53;;;5.13;;
2656;SDS011;1338;48.176;11.792;2022-10-18T13:31:23;5.40;;;5.00;;
2656;SDS011;1338;48.176;11.792;2022-10-18T13:36:57;7.50;;;4.70;;
2656;SDS011;1338;48.176;11.792;2022-10-18T13:39:28;6.47;;;5.00;;
2656;SDS011;1338;48.176;11.792;2022-10-18T13:51:01;6.93;;;5.60;;
2656;SDS011;1338;48.176;11.792;2022-10-18T13:53:44;7.50;;;4.97;;
2656;SDS011;1338;48.176;11.792;2022-10-18T13:56:25;7.30;;;4.90;;
2656;SDS011;1338;48.176;11.792;2022-10-18T13:59:14;5.80;;;4.70;;
2656;SDS011;1338;48.176;11.792;2022-10-18T14:02:00;7.53;;;5.00;;
2656;SDS011;1338;48.176;11.792;2022-10-18T14:05:04;5.57;;;4.70;;
2656;SDS011;1338;48.176;11.792;2022-10-18T14:07:50;5.10;;;4.60;;
2656;SDS011;1338;48.176;11.792;2022-10-18T14:10:27;9.47;;;5.50;;
2656;SDS011;1338;48.176;11.792;2022-10-18T14:13:24;5.40;;;4.90;;
2656;SDS011;1338;48.176;11.792;2022-10-18T14:16:00;6.03;;;5.43;;
2656;SDS011;1338;48.176;11.792;2022-10-18T14:18:33;7.43;;;5.10;;
2656;SDS011;1338;48.176;11.792;2022-10-18T14:21:04;6.80;;;5.40;;
2656;SDS011;1338;48.176;11.792;2022-10-18T14:23:41;7.17;;;5.50;;
2656;SDS011;1338;48.176;11.792;2022-10-18T14:26:12;5.10;;;4.60;;
2656;SDS011;1338;48.176;11.792;2022-10-18T14:28:42;5.07;;;4.67;;
2656;SDS011;1338;48.176;11.792;2022-10-18T14:31:25;5.90;;;4.90;;
2656;SDS011;1338;48.176;11.792;2022-10-18T14:33:55;7.17;;;5.00;;
2656;SDS011;1338;48.176;11.792;2022-10-18T14:36:25;5.20;;;4.70;;
2656;SDS011;1338;48.176;11.792;2022-10-18T14:38:56;5.97;;;5.37;;
2656;SDS011;1338;48.176;11.792;2022-10-18T14:41:26;7.40;;;4.90;;
2656;SDS011;1338;48.176;11.792;2022-10-18T14:44:11;6.63;;;5.43;;
2656;SDS011;1338;48.176;11.792;2022-10-18T14:46:45;6.57;;;5.87;;
2656;SDS011;1338;48.176;11.792;2022-10-18T14:49:15;7.83;;;5.13;;
2656;SDS011;1338;48.176;11.792;2022-10-18T14:51:45;5.57;;;5.07;;
2656;SDS011;1338;48.176;11.792;2022-10-18T14:54:15;5.53;;;5.03;;
2656;SDS011;1338;48.176;11.792;2022-10-18T14:56:45;6.20;;;5.13;;
2656;SDS011;1338;48.176;11.792;2022-10-18T14:59:17;8.00;;;5.27;;
2656;SDS011;1338;48.176;11.792;2022-10-18T15:01:51;6.50;;;5.73;;
2656;SDS011;1338;48.176;11.792;2022-10-18T15:04:22;7.30;;;4.93;;
2656;SDS011;1338;48.176;11.792;2022-10-18T15:06:56;7.73;;;5.77;;
2656;SDS011;1338;48.176;11.792;2022-10-18T15:09:26;9.93;;;5.83;;
2656;SDS011;1338;48.176;11.792;2022-10-18T15:11:59;6.30;;;5.70;;
2656;SDS011;1338;48.176;11.792;2022-10-18T15:14:31;7.03;;;5.70;;
2656;SDS011;1338;48.176;11.792;2022-10-18T15:17:01;9.40;;;5.40;;
2656;SDS011;1338;48.176;11.792;2022-10-18T15:19:34;12.53;;;5.83;;
2656;SDS011;1338;48.176;11.792;2022-10-18T15:22:05;7.20;;;5.73;;
2656;SDS011;1338;48.176;11.792;2022-10-18T15:25:14;7.83;;;5.90;;
2656;SDS011;1338;48.176;11.792;2022-10-18T15:27:44;8.70;;;5.63;;
2656;SDS011;1338;48.176;11.792;2022-10-18T15:30:16;7.13;;;5.57;;
2656;SDS011;1338;48.176;11.792;2022-10-18T15:32:49;7.33;;;4.90;;
2656;SDS011;1338;48.176;11.792;2022-10-18T15:35:20;6.77;;;5.80;;
2656;SDS011;1338;48.176;11.792;2022-10-18T15:37:52;8.77;;;5.70;;
2656;SDS011;1338;48.176;11.792;2022-10-18T15:40:35;7.97;;;5.40;;
2656;SDS011;1338;48.176;11.792;2022-10-18T15:43:05;6.20;;;5.47;;
2656;SDS011;1338;48.176;11.792;2022-10-18T15:45:50;5.43;;;5.03;;
2656;SDS011;1338;48.176;11.792;2022-10-18T15:48:20;6.00;;;4.77;;
2656;SDS011;1338;48.176;11.792;2022-10-18T15:50:50;6.43;;;4.90;;
2656;SDS011;1338;48.176;11.792;2022-10-18T15:53:30;7.40;;;5.60;;
2656;SDS011;1338;48.176;11.792;2022-10-18T15:56:09;7.10;;;5.30;;
2656;SDS011;1338;48.176;11.792;2022-10-18T15:58:53;7.53;;;4.67;;
2656;SDS011;1338;48.176;11.792;2022-10-18T16:01:25;6.50;;;5.10;;
2656;SDS011;1338;48.176;11.792;2022-10-18T16:04:03;5.10;;;4.70;;
2656;SDS011;1338;48.176;11.792;2022-10-18T16:06:34;6.20;;;5.53;;